Time;durP1;ratioP1;P1;durP2;ratioP2;P2;SDS_P1;SDS_P2;PMS_P1;PMS_P2;Temp;Humidity;BMP_temperature;BMP_pressure;BME280_temperature;BME280_humidity;BME280_pressure;Samples;Min_cycle;Max_cycle;Signal;HPM_P1;HPM_P2
2022/02/12 00:00:46;;;;;;;0.70;0.70;;;;;;;0.78;83.90;97847.81;5038172;28;20217;-70
2022/02/12 00:03:12;;;;;;;0.97;0.97;;;;;;;0.92;83.37;97845.34;5037478;28;20201;-70
2022/02/12 00:05:39;;;;;;;2.70;1.37;;;;;;;0.77;83.63;97835.75;5037750;28;20224;-70
2022/02/12 00:08:06;;;;;;;0.67;0.67;;;;;;;0.69;84.01;97840.50;5038104;28;20236;-70
2022/02/12 00:10:32;;;;;;;0.77;0.77;;;;;;;0.68;82.76;97833.66;5037607;28;20232;-71
2022/02/12 00:12:59;;;;;;;1.67;1.13;;;;;;;0.72;82.57;97819.59;5037763;28;20572;-70
2022/02/12 00:15:28;;;;;;;3.90;1.13;;;;;;;0.56;85.20;97826.50;5038124;28;20216;-70
2022/02/12 00:17:56;;;;;;;1.63;1.50;;;;;;;0.47;85.71;97826.97;5037769;28;20204;-70
2022/02/12 00:20:23;;;;;;;2.13;1.30;;;;;;;0.61;84.70;97819.28;5037575;28;20225;-70
2022/02/12 00:22:49;;;;;;;3.13;0.80;;;;;;;0.61;85.51;97819.28;5037181;28;20201;-70
2022/02/12 00:25:16;;;;;;;1.00;1.00;;;;;;;0.85;85.15;97812.84;5037916;28;20212;-70
2022/02/12 00:27:43;;;;;;;0.93;0.93;;;;;;;0.68;85.54;97810.28;5037544;28;20209;-70
2022/02/12 00:30:10;;;;;;;1.37;1.27;;;;;;;0.90;84.83;97805.66;5037508;28;20237;-70
2022/02/12 00:32:38;;;;;;;1.97;1.27;;;;;;;0.84;83.79;97814.59;5036816;28;20699;-70
2022/02/12 00:35:05;;;;;;;1.17;1.07;;;;;;;0.82;82.60;97813.84;5037530;28;20205;-70
2022/02/12 00:37:32;;;;;;;17.00;1.47;;;;;;;0.58;83.66;97809.09;5037468;28;20212;-70
2022/02/12 00:39:58;;;;;;;0.73;0.73;;;;;;;0.71;83.45;97804.94;5037534;28;20229;-70
2022/02/12 00:42:25;;;;;;;2.07;1.30;;;;;;;0.73;82.96;97803.13;5037010;28;20800;-70
2022/02/12 00:44:52;;;;;;;0.97;0.93;;;;;;;0.63;82.15;97807.09;5037249;28;20560;-70
2022/02/12 00:47:18;;;;;;;0.80;0.80;;;;;;;0.68;82.73;97805.09;5037462;28;20267;-70
2022/02/12 00:49:46;;;;;;;1.07;1.03;;;;;;;0.85;82.31;97812.84;5037022;28;20244;-70
2022/02/12 00:52:13;;;;;;;0.77;0.77;;;;;;;0.69;81.84;97805.03;5036727;28;20212;-70
2022/02/12 00:54:40;;;;;;;1.43;1.33;;;;;;;0.66;81.99;97801.75;5037153;28;20211;-70
2022/02/12 00:57:07;;;;;;;0.93;0.80;;;;;;;0.54;83.59;97811.94;5037170;28;20205;-70
2022/02/12 00:59:33;;;;;;;2.80;1.63;;;;;;;0.45;83.91;97807.22;5037418;28;20229;-70
2022/02/12 01:02:00;;;;;;;0.70;0.70;;;;;;;0.48;83.38;97805.28;5037234;28;20213;-70
2022/02/12 01:04:26;;;;;;;2.57;0.90;;;;;;;0.51;82.77;97791.31;5036295;28;20216;-70
2022/02/12 01:06:54;;;;;;;0.70;0.70;;;;;;;0.67;82.25;97803.44;5037145;28;20553;-70
2022/02/12 01:09:21;;;;;;;2.70;1.63;;;;;;;0.21;83.58;97805.84;5037144;28;20232;-70
2022/02/12 01:11:47;;;;;;;1.53;0.90;;;;;;;0.46;82.98;97803.69;5036622;28;20201;-70
2022/02/12 01:14:14;;;;;;;2.80;1.10;;;;;;;0.39;82.99;97800.56;5036761;28;20209;-70
2022/02/12 01:16:40;;;;;;;5.33;1.57;;;;;;;0.48;83.11;97794.91;5036686;28;20213;-70
2022/02/12 01:19:07;;;;;;;0.60;0.60;;;;;;;0.43;83.90;97788.28;5036724;28;20239;-70
2022/02/12 01:21:33;;;;;;;1.23;1.20;;;;;;;0.36;84.55;97785.19;5036703;28;20208;-70
2022/02/12 01:24:01;;;;;;;0.47;0.47;;;;;;;0.47;83.71;97789.81;5036491;28;20213;-70
2022/02/12 01:26:28;;;;;;;3.90;1.40;;;;;;;0.44;82.86;97784.78;5036662;28;20209;-70
2022/02/12 01:28:54;;;;;;;0.93;0.93;;;;;;;0.18;84.33;97788.72;5036309;28;20217;-70
2022/02/12 01:31:21;;;;;;;2.30;0.93;;;;;;;0.12;84.93;97778.63;5036853;28;20677;-70
2022/02/12 01:33:48;;;;;;;0.93;0.87;;;;;;;0.26;82.63;97783.97;5035790;28;20209;-70
2022/02/12 01:36:14;;;;;;;1.10;1.03;;;;;;;0.26;81.57;97777.97;5036686;28;20209;-70
2022/02/12 01:38:41;;;;;;;2.90;2.30;;;;;;;0.30;82.63;97772.53;5036683;28;20208;-70
2022/02/12 01:41:09;;;;;;;0.90;0.90;;;;;;;0.10;84.71;97772.72;5036930;28;20215;-70
2022/02/12 01:43:35;;;;;;;2.80;1.30;;;;;;;0.18;84.80;97772.34;5035874;28;20215;-70
2022/02/12 01:46:02;;;;;;;0.77;0.77;;;;;;;0.09;83.32;97767.59;5036872;28;20220;-70
2022/02/12 01:48:28;;;;;;;1.73;1.20;;;;;;;-0.02;83.00;97765.53;5036693;28;20603;-70
2022/02/12 01:50:55;;;;;;;2.00;1.37;;;;;;;0.07;83.99;97764.25;5036488;28;20347;-70
2022/02/12 01:53:23;;;;;;;1.20;1.10;;;;;;;0.14;84.69;97771.63;5035835;28;20251;-70
2022/02/12 01:55:49;;;;;;;1.13;1.03;;;;;;;-0.02;84.74;97777.66;5036529;28;20193;-70
2022/02/12 01:58:17;;;;;;;3.63;1.20;;;;;;;0.25;82.79;97768.50;5036592;28;20209;-70
2022/02/12 02:00:44;;;;;;;1.13;1.03;;;;;;;0.05;81.92;97766.91;5035425;28;20221;-70
2022/02/12 02:03:10;;;;;;;2.73;2.33;;;;;;;0.05;82.37;97769.50;5035812;28;21248;-70
2022/02/12 02:05:36;;;;;;;0.80;0.57;;;;;;;-0.09;82.96;97762.50;5036567;28;20216;-70
2022/02/12 02:08:03;;;;;;;1.27;1.17;;;;;;;-0.10;84.00;97766.00;5036334;28;20212;-71
2022/02/12 02:10:30;;;;;;;1.90;1.10;;;;;;;0.04;83.17;97757.47;5036483;28;20236;-70
2022/02/12 02:12:56;;;;;;;1.60;1.00;;;;;;;-0.11;82.88;97765.16;5035622;28;21322;-70
2022/02/12 02:15:24;;;;;;;1.03;0.93;;;;;;;-0.01;82.81;97759.44;5036124;28;20685;-70
2022/02/12 02:17:51;;;;;;;1.33;1.23;;;;;;;-0.14;82.57;97748.94;5035895;28;21046;-70
2022/02/12 02:20:18;;;;;;;0.83;0.83;;;;;;;-0.03;83.35;97744.06;5036673;28;20705;-70
2022/02/12 02:22:50;;;;;;;7.53;1.70;;;;;;;-0.01;83.76;97746.47;5035257;28;21253;-71
2022/02/12 02:25:17;;;;;;;1.30;1.07;;;;;;;-0.12;84.09;97739.34;5036488;28;20206;-70
2022/02/12 02:27:43;;;;;;;0.77;0.77;;;;;;;-0.26;83.67;97740.00;5036216;28;20202;-70
2022/02/12 02:30:13;;;;;;;3.03;1.20;;;;;;;-0.32;83.41;97744.66;5035823;28;20240;-70
2022/02/12 02:32:40;;;;;;;2.53;1.47;;;;;;;-0.31;84.18;97738.56;5035496;28;20288;-70
2022/02/12 02:35:08;;;;;;;1.53;1.40;;;;;;;-0.40;83.40;97754.56;5036523;28;20209;-70
2022/02/12 02:37:35;;;;;;;1.50;0.90;;;;;;;-0.51;83.42;97749.03;5036628;28;20221;-70
2022/02/12 02:40:10;;;;;;;1.10;1.00;;;;;;;-0.26;83.56;97752.97;5039432;28;20222;-70
2022/02/12 02:42:40;;;;;;;1.70;1.50;;;;;;;-0.28;83.77;97746.19;5038943;28;20215;-70
2022/02/12 02:45:09;;;;;;;2.50;1.53;;;;;;;-0.41;85.11;97739.94;5039694;28;20216;-70
2022/02/12 02:47:40;;;;;;;1.07;0.97;;;;;;;-0.70;85.53;97732.75;5039314;28;20240;-70
2022/02/12 02:55:59;;;;;;;3.13;1.97;;;;;;;-0.58;85.74;97735.56;5039324;28;20393;-70
2022/02/12 02:58:25;;;;;;;0.93;0.90;;;;;;;-0.36;82.57;97741.38;5038966;28;20243;-70
2022/02/12 03:00:52;;;;;;;1.47;1.37;;;;;;;-0.48;80.76;97738.56;5039379;28;20306;-70
2022/02/12 03:03:18;;;;;;;1.43;1.20;;;;;;;-0.43;79.73;97741.78;5038767;28;20216;-70
2022/02/12 03:05:45;;;;;;;1.30;0.90;;;;;;;-0.44;80.28;97740.91;5039383;28;20957;-70
2022/02/12 03:08:11;;;;;;;2.23;1.23;;;;;;;-0.61;79.96;97732.31;5039431;28;20280;-70
2022/02/12 03:10:38;;;;;;;2.03;1.60;;;;;;;-0.99;81.90;97729.84;5038867;28;20736;-70
2022/02/12 03:13:06;;;;;;;0.77;0.77;;;;;;;-0.54;81.61;97725.91;5038525;28;20224;-70
2022/02/12 03:15:33;;;;;;;7.20;1.37;;;;;;;-0.66;83.31;97723.91;5039139;28;20212;-70
2022/02/12 03:17:59;;;;;;;0.97;0.97;;;;;;;-0.52;83.51;97721.50;5038569;28;20217;-70
2022/02/12 03:20:25;;;;;;;0.90;0.77;;;;;;;-0.64;81.78;97722.06;5039228;28;20229;-70
2022/02/12 03:22:52;;;;;;;4.67;1.60;;;;;;;-0.52;82.20;97721.50;5038392;28;20213;-70
2022/02/12 03:25:18;;;;;;;3.50;2.00;;;;;;;-0.55;83.50;97732.00;5039053;28;20914;-70
2022/02/12 03:27:45;;;;;;;1.83;1.37;;;;;;;-0.37;84.00;97724.19;5039033;28;20209;-70
2022/02/12 03:30:13;;;;;;;1.90;1.23;;;;;;;-0.23;83.86;97716.56;5038604;28;20682;-70
2022/02/12 03:32:39;;;;;;;0.77;0.77;;;;;;;-0.38;83.01;97719.03;5037991;28;20216;-70
2022/02/12 03:35:07;;;;;;;0.97;0.93;;;;;;;-0.31;81.34;97704.91;5038699;28;20201;-70
2022/02/12 03:37:33;;;;;;;1.10;1.00;;;;;;;-0.43;81.09;97706.34;5038873;28;20270;-70
2022/02/12 03:40:00;;;;;;;4.17;1.70;;;;;;;-0.43;80.14;97703.75;5038540;28;20239;-70
2022/02/12 03:42:26;;;;;;;1.60;1.37;;;;;;;-0.56;81.81;97699.25;5038309;28;20202;-70
2022/02/12 03:44:53;;;;;;;1.03;1.03;;;;;;;-0.54;81.88;97707.78;5038234;28;20213;-70
2022/02/12 03:47:20;;;;;;;0.60;0.60;;;;;;;-0.44;81.94;97702.06;5039147;28;20238;-70
2022/02/12 03:49:47;;;;;;;0.50;0.50;;;;;;;-0.63;80.64;97707.41;5034325;28;20228;-70
2022/02/12 03:52:13;;;;;;;1.10;1.00;;;;;;;-0.55;81.59;97700.91;5037901;28;20208;-70
2022/02/12 03:54:40;;;;;;;1.83;1.67;;;;;;;-0.61;80.87;97701.25;5038068;28;20213;-70
2022/02/12 03:57:06;;;;;;;4.00;1.53;;;;;;;-0.63;80.75;97703.88;5038432;28;20213;-70
2022/02/12 03:59:33;;;;;;;1.90;1.33;;;;;;;-0.61;82.13;97693.47;5038024;28;21012;-70
2022/02/12 04:02:01;;;;;;;1.47;1.33;;;;;;;-0.70;82.91;97695.66;5038383;28;20201;-70
2022/02/12 04:04:28;;;;;;;2.50;1.77;;;;;;;-0.77;83.08;97695.13;5037537;28;20207;-70
2022/02/12 04:06:55;;;;;;;1.10;1.00;;;;;;;-0.76;83.57;97696.81;5038371;28;20211;-70
2022/02/12 04:09:22;;;;;;;1.03;0.70;;;;;;;-0.75;83.75;97693.31;5037618;28;21138;-70
2022/02/12 04:11:48;;;;;;;2.00;1.73;;;;;;;-0.73;83.48;97691.47;5038047;28;20571;-70
2022/02/12 04:14:15;;;;;;;0.80;0.73;;;;;;;-1.03;81.67;97687.75;5037732;28;20208;-70
2022/02/12 04:16:41;;;;;;;5.27;1.30;;;;;;;-1.09;80.75;97688.03;5037929;28;20562;-70
2022/02/12 04:19:08;;;;;;;0.80;0.80;;;;;;;-0.85;81.03;97697.25;5037829;28;20232;-70
2022/02/12 04:21:35;;;;;;;18.33;1.57;;;;;;;-0.64;81.11;97688.44;5037843;28;20219;-70
2022/02/12 04:24:02;;;;;;;0.53;0.53;;;;;;;-0.79;80.93;97685.75;5037140;28;20208;-70
2022/02/12 04:26:30;;;;;;;0.57;0.57;;;;;;;-0.65;82.28;97678.16;5037541;28;20224;-70
2022/02/12 04:28:57;;;;;;;2.37;1.17;;;;;;;-1.25;83.16;97677.66;5037384;28;20204;-70
2022/02/12 04:31:23;;;;;;;0.80;0.80;;;;;;;-1.18;82.45;97682.47;5037579;28;20209;-70
2022/02/12 04:33:50;;;;;;;0.90;0.90;;;;;;;-1.57;84.24;97671.38;5036543;28;20205;-70
2022/02/12 04:36:16;;;;;;;1.63;1.53;;;;;;;-1.38;84.78;97673.97;5037597;28;20212;-70
2022/02/12 04:38:44;;;;;;;1.07;0.80;;;;;;;-1.09;82.73;97658.78;5037213;28;20209;-70
2022/02/12 04:41:11;;;;;;;1.27;1.13;;;;;;;-1.23;80.78;97659.41;5037716;28;20993;-70
2022/02/12 04:43:39;;;;;;;0.93;0.73;;;;;;;-1.24;81.92;97663.84;5036707;28;20586;-70
2022/02/12 04:46:05;;;;;;;1.10;1.00;;;;;;;-1.40;83.53;97661.13;5037335;28;20208;-70
2022/02/12 04:48:32;;;;;;;1.30;0.87;;;;;;;-1.27;83.73;97656.19;5037516;28;20207;-70
2022/02/12 04:50:58;;;;;;;1.80;0.80;;;;;;;-1.30;81.79;97651.19;5037063;28;20233;-70
2022/02/12 04:53:25;;;;;;;1.13;0.83;;;;;;;-1.33;81.01;97653.91;5036427;28;21243;-70
2022/02/12 04:55:53;;;;;;;0.80;0.80;;;;;;;-1.07;81.41;97649.16;5037031;28;20201;-70
2022/02/12 04:58:19;;;;;;;0.77;0.70;;;;;;;-1.18;82.54;97635.94;5037340;28;20205;-70
2022/02/12 05:00:46;;;;;;;1.23;1.13;;;;;;;-1.28;83.05;97644.19;5036224;28;20224;-70
2022/02/12 05:03:12;;;;;;;3.03;2.00;;;;;;;-1.33;83.35;97643.56;5036282;28;20205;-70
2022/02/12 05:05:39;;;;;;;2.87;1.60;;;;;;;-1.21;83.26;97638.63;5036775;28;20682;-70
2022/02/12 05:08:05;;;;;;;1.73;1.63;;;;;;;-1.05;84.13;97637.00;5036664;28;20208;-70
2022/02/12 05:10:32;;;;;;;5.20;1.57;;;;;;;-0.90;84.28;97634.53;5036684;28;20239;-70
2022/02/12 05:13:00;;;;;;;2.00;0.90;;;;;;;-0.73;84.22;97629.34;5036112;28;20237;-70
2022/02/12 05:15:27;;;;;;;1.97;1.23;;;;;;;-1.04;84.05;97624.00;5037388;28;20213;-70
2022/02/12 05:17:54;;;;;;;1.50;1.40;;;;;;;-0.99;83.36;97619.44;5036683;28;20236;-70
2022/02/12 05:20:20;;;;;;;1.67;1.57;;;;;;;-0.97;82.15;97617.63;5036820;28;20286;-70
2022/02/12 05:22:48;;;;;;;0.70;0.70;;;;;;;-1.08;80.54;97622.47;5036220;28;20211;-70
2022/02/12 05:25:14;;;;;;;1.37;1.27;;;;;;;-1.30;83.87;97610.63;5036769;28;20205;-70
2022/02/12 05:27:41;;;;;;;2.37;1.50;;;;;;;-1.13;84.56;97613.28;5036740;28;20203;-70
2022/02/12 05:30:10;;;;;;;1.80;1.37;;;;;;;-0.89;84.27;97610.34;5036504;28;20251;-70
2022/02/12 05:32:37;;;;;;;3.30;2.10;;;;;;;-0.96;84.27;97602.94;5036090;28;20204;-70
2022/02/12 05:35:04;;;;;;;2.00;1.70;;;;;;;-0.89;84.70;97604.31;5036422;28;20212;-70
2022/02/12 05:37:31;;;;;;;1.63;1.23;;;;;;;-1.00;84.00;97610.00;5036401;28;20216;-70
2022/02/12 05:39:58;;;;;;;1.60;1.50;;;;;;;-1.10;83.54;97602.78;5036704;28;20224;-70
2022/02/12 05:42:24;;;;;;;1.87;1.77;;;;;;;-1.10;82.35;97595.00;5035860;28;20216;-70
2022/02/12 05:44:53;;;;;;;3.37;2.07;;;;;;;-1.10;82.80;97590.66;5036586;28;20209;-70
2022/02/12 05:47:20;;;;;;;6.23;2.53;;;;;;;-1.09;84.99;97579.41;5036165;28;20209;-71
2022/02/12 05:49:47;;;;;;;1.00;1.00;;;;;;;-1.04;85.67;97582.63;5036166;28;21335;-70
2022/02/12 05:52:13;;;;;;;2.60;2.07;;;;;;;-1.02;86.42;97574.78;5036284;28;20216;-70
2022/02/12 05:54:40;;;;;;;5.70;2.57;;;;;;;-1.05;84.24;97570.59;5036460;28;20212;-70
2022/02/12 05:57:06;;;;;;;2.87;1.40;;;;;;;-0.97;83.62;97581.44;5036689;28;20209;-70
2022/02/12 05:59:33;;;;;;;2.33;1.90;;;;;;;-0.97;83.87;97572.81;5036146;28;20984;-70
2022/02/12 06:02:01;;;;;;;3.50;1.90;;;;;;;-1.02;85.79;97579.94;5036373;28;20223;-71
2022/02/12 06:04:30;;;;;;;2.00;1.80;;;;;;;-0.81;86.30;97577.16;5035613;28;21032;-71
2022/02/12 06:06:56;;;;;;;4.00;2.40;;;;;;;-0.88;85.65;97569.75;5036143;28;20214;-71
2022/02/12 06:09:23;;;;;;;3.67;2.17;;;;;;;-0.94;86.34;97568.34;5036603;28;20234;-71
2022/02/12 06:11:49;;;;;;;4.67;2.73;;;;;;;-0.99;87.83;97565.13;5036484;28;20232;-71
2022/02/12 06:14:16;;;;;;;6.17;1.63;;;;;;;-0.95;89.07;97560.66;5039494;28;20593;-71
2022/02/12 06:16:42;;;;;;;1.53;1.00;;;;;;;-0.90;88.29;97563.84;5039794;28;20940;-71
2022/02/12 06:19:09;;;;;;;1.40;1.23;;;;;;;-0.96;89.54;97559.78;5040087;28;20248;-71
2022/02/12 06:21:36;;;;;;;4.30;2.80;;;;;;;-0.80;90.53;97558.13;5039864;28;20216;-71
2022/02/12 06:24:03;;;;;;;14.07;2.50;;;;;;;-0.76;89.46;97551.88;5039929;28;20220;-71
2022/02/12 06:26:30;;;;;;;0.67;0.67;;;;;;;-0.88;86.75;97547.34;5039951;28;20220;-71
2022/02/12 06:28:56;;;;;;;3.20;1.17;;;;;;;-0.86;85.64;97552.44;5039747;28;20664;-71
2022/02/12 06:31:23;;;;;;;3.00;1.20;;;;;;;-0.90;87.46;97564.69;5039849;28;20221;-71
2022/02/12 06:33:49;;;;;;;3.33;2.10;;;;;;;-0.76;87.11;97562.22;5039234;28;20212;-71
2022/02/12 06:36:16;;;;;;;2.20;1.47;;;;;;;-0.81;87.60;97564.22;5039630;28;20212;-71
2022/02/12 06:38:44;;;;;;;1.53;1.30;;;;;;;-0.70;87.44;97561.09;5037344;28;20214;-71
2022/02/12 06:41:10;;;;;;;1.63;1.53;;;;;;;-1.03;89.09;97561.03;5039263;28;20296;-71
2022/02/12 06:43:37;;;;;;;1.03;1.03;;;;;;;-0.98;89.70;97577.16;5037724;28;20203;-71
2022/02/12 06:46:03;;;;;;;0.90;0.90;;;;;;;-0.96;90.76;97575.31;5038171;28;20201;-71
2022/02/12 06:48:30;;;;;;;4.33;2.47;;;;;;;-0.88;89.77;97578.38;5038307;28;20212;-71
2022/02/12 06:50:56;;;;;;;1.73;1.63;;;;;;;-0.74;88.81;97568.16;5039004;28;20416;-71
2022/02/12 06:53:23;;;;;;;1.63;1.27;;;;;;;-0.79;88.91;97571.91;5038094;28;20205;-71
2022/02/12 06:55:51;;;;;;;1.67;1.57;;;;;;;-0.62;89.79;97564.97;5038981;28;20200;-71
2022/02/12 06:58:18;;;;;;;2.43;2.23;;;;;;;-0.86;90.78;97573.13;5038552;28;20201;-71
2022/02/12 07:00:44;;;;;;;8.53;3.50;;;;;;;-0.69;89.99;97575.69;5038916;28;21595;-71
2022/02/12 07:03:11;;;;;;;2.73;2.43;;;;;;;-0.61;88.92;97577.00;5038661;28;20205;-71
2022/02/12 07:05:37;;;;;;;1.47;1.37;;;;;;;-0.61;89.19;97579.59;5038192;28;20213;-71
2022/02/12 07:08:04;;;;;;;1.90;1.70;;;;;;;-0.82;89.04;97583.22;5039468;28;20205;-72
2022/02/12 07:10:34;;;;;;;0.83;0.83;;;;;;;-0.98;89.62;97582.34;5038480;28;20232;-71
2022/02/12 07:13:02;;;;;;;1.30;1.20;;;;;;;-0.50;88.22;97578.13;5038323;28;20212;-71
2022/02/12 07:15:28;;;;;;;2.83;1.53;;;;;;;-0.43;86.83;97578.66;5039149;28;20216;-71
2022/02/12 07:17:55;;;;;;;0.70;0.70;;;;;;;-0.50;86.84;97579.88;5038784;28;20220;-71
2022/02/12 07:20:21;;;;;;;1.83;1.17;;;;;;;-0.43;87.30;97583.81;5038916;28;20233;-72
2022/02/12 07:22:48;;;;;;;24.73;2.17;;;;;;;-0.30;88.50;97571.91;5038090;28;20193;-72
2022/02/12 07:25:16;;;;;;;7.20;2.47;;;;;;;-0.28;87.58;97577.84;5037943;28;20212;-72
2022/02/12 07:27:43;;;;;;;2.53;2.13;;;;;;;-0.38;88.96;97579.22;5038982;28;20197;-71
2022/02/12 07:30:14;;;;;;;1.80;1.63;;;;;;;-0.24;87.86;97572.44;5038744;28;20244;-71
2022/02/12 07:32:41;;;;;;;1.43;1.33;;;;;;;-0.17;88.37;97568.59;5037395;28;20209;-71
2022/02/12 07:35:09;;;;;;;2.23;2.03;;;;;;;-0.33;89.88;97567.72;5039029;28;20228;-71
2022/02/12 07:37:38;;;;;;;3.47;1.73;;;;;;;-0.04;90.08;97558.44;5038432;28;20247;-71
2022/02/12 07:40:06;;;;;;;3.57;1.43;;;;;;;0.02;89.84;97558.94;5038624;28;20568;-71
2022/02/12 07:42:32;;;;;;;1.07;0.90;;;;;;;-0.28;91.69;97559.72;5037694;28;20593;-71
2022/02/12 07:44:59;;;;;;;1.50;1.40;;;;;;;-0.02;91.03;97557.44;5038158;28;20208;-71
2022/02/12 07:47:26;;;;;;;1.67;1.33;;;;;;;0.14;91.39;97553.94;5038495;28;20700;-71
2022/02/12 07:49:53;;;;;;;2.00;1.70;;;;;;;0.22;91.43;97549.16;5037434;28;20723;-71
2022/02/12 07:52:20;;;;;;;4.40;1.77;;;;;;;0.40;91.78;97555.13;5037742;28;20212;-72
2022/02/12 07:54:46;;;;;;;4.30;1.67;;;;;;;0.48;91.40;97553.75;5038443;28;20207;-71
2022/02/12 07:57:13;;;;;;;6.47;1.83;;;;;;;0.68;91.82;97553.50;5038453;28;20205;-71
2022/02/12 07:59:39;;;;;;;5.77;2.63;;;;;;;0.74;91.00;97553.16;5038141;28;20235;-72
2022/02/12 08:02:06;;;;;;;12.53;2.43;;;;;;;0.82;91.84;97553.56;5036735;28;21106;-73
2022/02/12 08:04:34;;;;;;;3.87;1.60;;;;;;;0.80;92.23;97550.22;5037016;28;20232;-71
2022/02/12 08:09:46;;;;;;;3.87;2.73;;;;;;;1.16;91.51;97548.97;5038117;28;20236;-72
2022/02/12 08:12:13;;;;;;;1.13;0.97;;;;;;;0.79;92.80;97548.53;5037336;28;20315;-71
2022/02/12 08:14:42;;;;;;;8.87;2.97;;;;;;;0.92;93.50;97550.34;5037802;28;20212;-73
2022/02/12 08:17:09;;;;;;;1.83;1.70;;;;;;;0.96;93.07;97540.66;5038061;28;20237;-72
2022/02/12 08:19:37;;;;;;;3.37;1.90;;;;;;;1.26;93.16;97543.13;5037380;28;20229;-72
2022/02/12 08:22:04;;;;;;;3.57;2.43;;;;;;;1.19;92.66;97541.81;5037496;28;20650;-71
2022/02/12 08:24:31;;;;;;;5.20;2.57;;;;;;;1.29;92.32;97549.91;5036148;28;20580;-72
2022/02/12 08:26:57;;;;;;;3.83;1.60;;;;;;;1.60;90.79;97544.56;5037997;28;20295;-72
2022/02/12 08:29:28;;;;;;;2.97;1.87;;;;;;;1.80;90.75;97547.66;5037943;28;20229;-71
2022/02/12 08:31:54;;;;;;;2.63;1.87;;;;;;;1.77;89.63;97541.78;5037741;28;20444;-72
2022/02/12 08:34:22;;;;;;;3.00;1.37;;;;;;;1.90;89.87;97539.19;5036881;28;20775;-72
2022/02/12 08:36:50;;;;;;;1.70;1.10;;;;;;;2.15;89.82;97538.53;5036817;28;20297;-72
2022/02/12 08:39:17;;;;;;;2.53;1.57;;;;;;;1.83;90.23;97527.53;5037881;28;20225;-72
2022/02/12 08:41:43;;;;;;;4.10;3.03;;;;;;;1.88;90.70;97520.28;5037991;28;20205;-72
2022/02/12 08:44:10;;;;;;;6.77;2.50;;;;;;;1.80;90.36;97525.09;5037388;28;20209;-71
2022/02/12 08:46:37;;;;;;;3.37;1.67;;;;;;;1.87;90.58;97513.41;5037530;28;20229;-71
2022/02/12 08:49:04;;;;;;;20.57;2.27;;;;;;;1.91;91.27;97511.47;5037328;28;20586;-72
2022/02/12 08:51:31;;;;;;;4.90;1.90;;;;;;;2.00;91.38;97509.13;5037216;28;20309;-71
2022/02/12 08:53:59;;;;;;;18.50;2.13;;;;;;;2.16;90.90;97509.81;5036756;28;20681;-71
2022/02/12 08:56:26;;;;;;;3.47;1.87;;;;;;;2.34;91.50;97510.44;5036867;28;20213;-72
2022/02/12 08:58:53;;;;;;;4.13;1.97;;;;;;;2.36;90.66;97506.81;5036720;28;20220;-71
2022/02/12 09:01:19;;;;;;;10.40;1.97;;;;;;;2.57;89.99;97503.69;5036839;28;20211;-72
2022/02/12 09:03:46;;;;;;;4.53;2.77;;;;;;;2.56;90.94;97503.81;5035529;28;20208;-72
2022/02/12 09:06:12;;;;;;;2.40;1.63;;;;;;;2.86;89.25;97502.63;5037120;28;20205;-72
2022/02/12 09:08:39;;;;;;;2.07;1.43;;;;;;;2.80;90.08;97505.66;5035884;28;20481;-71
2022/02/12 09:11:07;;;;;;;9.57;2.30;;;;;;;3.13;89.36;97500.81;5035770;28;20229;-71
2022/02/12 09:13:33;;;;;;;4.87;3.10;;;;;;;2.68;89.89;97503.81;5035277;28;20213;-71
2022/02/12 09:16:00;;;;;;;2.20;1.70;;;;;;;2.80;91.04;97510.00;5036512;28;20201;-71
2022/02/12 09:18:26;;;;;;;4.43;2.13;;;;;;;3.16;90.55;97498.84;5036365;28;20212;-72
2022/02/12 09:20:53;;;;;;;3.77;1.30;;;;;;;3.13;89.77;97496.47;5037009;28;20244;-71
2022/02/12 09:23:20;;;;;;;2.70;1.37;;;;;;;2.69;91.35;97502.06;5035569;28;20205;-71
2022/02/12 09:25:46;;;;;;;6.70;2.60;;;;;;;2.68;92.56;97503.00;5036081;28;20230;-71
2022/02/12 09:28:14;;;;;;;2.30;1.83;;;;;;;2.70;92.55;97499.38;5036131;28;20200;-70
2022/02/12 09:30:40;;;;;;;7.87;2.93;;;;;;;2.59;93.14;97504.41;5036296;28;20232;-69
2022/02/12 09:33:07;;;;;;;22.67;2.90;;;;;;;2.93;91.46;97492.66;5035376;28;20673;-70
2022/02/12 09:35:33;;;;;;;6.37;2.90;;;;;;;2.90;92.53;97493.69;5036195;28;20212;-69
2022/02/12 09:38:00;;;;;;;4.77;2.77;;;;;;;3.38;89.51;97485.22;5036412;28;20580;-69
2022/02/12 09:40:28;;;;;;;4.17;2.67;;;;;;;3.26;92.19;97483.44;5035574;28;20712;-70
2022/02/12 09:42:58;;;;;;;2.30;2.00;;;;;;;2.40;94.51;97491.88;5034889;28;20203;-70
2022/02/12 09:45:28;;;;;;;2.60;1.90;;;;;;;2.40;95.69;97489.25;5036410;28;20228;-70
2022/02/12 09:47:54;;;;;;;3.73;2.40;;;;;;;2.44;95.70;97482.00;5037654;28;20215;-69
2022/02/12 09:50:23;;;;;;;10.20;3.37;;;;;;;2.54;96.61;97477.03;5039905;28;20716;-68
2022/02/12 09:52:52;;;;;;;2.57;1.80;;;;;;;2.40;96.65;97481.47;5039638;28;20228;-69
2022/02/12 09:55:20;;;;;;;2.97;1.60;;;;;;;2.44;98.16;97479.41;5040003;28;20224;-70
2022/02/12 09:57:47;;;;;;;3.20;2.53;;;;;;;2.85;95.58;97467.16;5039162;28;20212;-70
2022/02/12 10:00:17;;;;;;;2.27;1.90;;;;;;;2.93;94.31;97462.25;5040270;28;20244;-70
2022/02/12 10:02:46;;;;;;;4.97;2.40;;;;;;;3.30;94.29;97474.50;5039450;28;20215;-70
2022/02/12 10:05:21;;;;;;;4.80;2.47;;;;;;;3.46;91.07;97467.31;5039767;28;20508;-70
2022/02/12 10:07:48;;;;;;;2.03;1.40;;;;;;;2.99;91.23;97467.03;5039620;28;20288;-70
2022/02/12 10:10:16;;;;;;;4.57;2.60;;;;;;;3.13;91.21;97472.16;5040015;28;20247;-69
2022/02/12 10:12:43;;;;;;;13.10;3.40;;;;;;;3.34;90.39;97470.75;5039008;28;21114;-70
2022/02/12 10:15:14;;;;;;;8.87;3.10;;;;;;;3.93;88.00;97468.31;5039914;28;20213;-69
2022/02/12 10:18:00;;;;;;;5.47;2.97;;;;;;;4.26;85.71;97467.59;5040041;28;20298;-71
2022/02/12 10:20:30;;;;;;;4.53;3.10;;;;;;;4.11;85.09;97472.22;5039634;28;20221;-70
2022/02/12 10:23:05;;;;;;;10.50;4.03;;;;;;;4.19;86.44;97473.34;5038814;28;20212;-70
2022/02/12 10:25:32;;;;;;;3.63;1.93;;;;;;;3.73;86.63;97463.66;5039906;28;20200;-70
2022/02/12 10:27:59;;;;;;;4.33;2.93;;;;;;;3.93;86.76;97466.50;5039620;28;20213;-71
2022/02/12 10:30:26;;;;;;;7.17;2.93;;;;;;;3.65;87.48;97463.31;5039970;28;20240;-70
2022/02/12 10:32:55;;;;;;;5.60;2.67;;;;;;;3.93;89.51;97458.69;5039680;28;20221;-68
2022/02/12 10:35:23;;;;;;;10.10;5.07;;;;;;;4.73;86.72;97446.72;5036452;28;20439;-71
2022/02/12 10:37:52;;;;;;;12.73;3.50;;;;;;;4.62;83.02;97443.22;5038862;28;20847;-70
2022/02/12 10:40:19;;;;;;;6.33;3.10;;;;;;;4.35;85.54;97445.22;5039618;28;20709;-70
2022/02/12 10:42:46;;;;;;;4.13;2.70;;;;;;;4.19;86.92;97441.19;5038761;28;21121;-71
2022/02/12 10:45:16;;;;;;;8.97;3.77;;;;;;;4.15;87.61;97432.78;5040039;28;20240;-70
2022/02/12 10:47:43;;;;;;;7.77;3.83;;;;;;;4.23;87.55;97426.06;5039573;28;20246;-71
2022/02/12 10:50:11;;;;;;;5.77;3.77;;;;;;;4.30;87.63;97408.19;5039939;28;20221;-69
2022/02/12 10:52:44;;;;;;;12.73;3.57;;;;;;;4.42;88.32;97400.31;5039349;28;20256;-70
2022/02/12 10:55:36;;;;;;;6.00;3.17;;;;;;;4.82;86.84;97399.03;5039228;28;20245;-70
2022/02/12 10:58:05;;;;;;;3.37;2.97;;;;;;;4.59;85.38;97399.91;5032674;28;20201;-71
2022/02/12 11:00:34;;;;;;;10.03;4.43;;;;;;;4.60;88.15;97398.97;5037596;28;20319;-70
2022/02/12 11:03:05;;;;;;;8.40;3.90;;;;;;;4.51;87.08;97389.19;5038154;28;20201;-71
2022/02/12 11:05:33;;;;;;;10.37;4.73;;;;;;;4.83;85.05;97393.69;5039481;28;20208;-70
2022/02/12 11:08:03;;;;;;;7.93;3.37;;;;;;;4.85;85.88;97383.97;5038399;28;20202;-70
2022/02/12 11:10:30;;;;;;;12.93;3.53;;;;;;;4.60;86.39;97378.09;5038713;28;20279;-70
2022/02/12 11:12:58;;;;;;;10.77;3.47;;;;;;;5.14;86.49;97380.03;5038352;28;20229;-70
2022/02/12 11:15:28;;;;;;;8.03;2.77;;;;;;;4.99;85.41;97383.78;5038736;28;20205;-71
2022/02/12 11:17:56;;;;;;;17.37;3.83;;;;;;;4.99;85.57;97365.50;5038436;28;20217;-70
2022/02/12 11:20:24;;;;;;;9.87;3.70;;;;;;;5.13;84.45;97364.44;5038119;28;20322;-70
2022/02/12 11:23:10;;;;;;;4.23;2.53;;;;;;;5.07;85.67;97368.34;5037583;28;20198;-70
2022/02/12 11:25:39;;;;;;;5.93;3.37;;;;;;;5.42;84.99;97358.63;5038147;28;20213;-70
2022/02/12 11:28:08;;;;;;;7.43;3.70;;;;;;;5.77;83.58;97354.16;5038098;28;20756;-71
2022/02/12 11:30:37;;;;;;;10.57;3.80;;;;;;;5.74;82.02;97339.50;5038251;28;20229;-71
2022/02/12 11:33:09;;;;;;;5.17;3.03;;;;;;;5.99;82.12;97343.63;5037266;28;20224;-70
2022/02/12 11:35:36;;;;;;;9.27;4.00;;;;;;;6.09;79.20;97340.97;5037590;28;20205;-71
2022/02/12 11:38:03;;;;;;;9.03;3.30;;;;;;;6.30;79.90;97328.78;5037386;28;21092;-71
2022/02/12 11:40:30;;;;;;;5.60;2.80;;;;;;;5.97;74.28;97325.47;5034665;28;20257;-70
2022/02/12 11:43:00;;;;;;;4.90;2.57;;;;;;;6.54;73.78;97326.75;5034680;28;20197;-71
2022/02/12 11:45:35;;;;;;;2.30;1.73;;;;;;;6.65;67.09;97314.44;5035537;28;20211;-70